Airport View

Enter AWOS ICAO identifier for current METAR.

ex. KFNL

KLRO 300455Z AUTO 22013G25KT 10SM SCT026 BKN034 BKN043 25/22 A2965 RMK AO2

30 Oct 2020 04:56

Frequency: 118.625

Phone: 843-849-0438

Other Area AWOS: KCHS - KJZI - KMKS - KDYB

TAF AMD KCHS 300256Z 3003/3024 21014G21KT P6SM BKN015 FM300430 24018G28KT P6SM SCT020 FM300700 27016G25KT P6SM FEW050 FM301100 29012G18KT P6SM SKC FM301600 33010KT P6SM SKC